createdAt,value
2022-09-22T00:01:19.804Z,96665.06
2022-09-22T00:03:50.480Z,96665.09
2022-09-22T00:06:18.952Z,96660.81
2022-09-22T00:08:49.136Z,96665.88
2022-09-22T00:11:27.239Z,96665.81
2022-09-22T00:13:59.728Z,96663.19
2022-09-22T00:16:31.003Z,96661.47
2022-09-22T00:18:58.710Z,96668.06
2022-09-22T00:21:30.783Z,96658.97
2022-09-22T00:24:00.512Z,96660.19
2022-09-22T00:26:27.891Z,96650.88
2022-09-22T00:28:54.963Z,96658.13
2022-09-22T00:31:26.251Z,96659.69
2022-09-22T00:33:54.372Z,96654.06
2022-09-22T00:36:25.568Z,96648.81
2022-09-22T00:38:54.247Z,96649.44
2022-09-22T00:41:30.911Z,96652.38
2022-09-22T00:44:29.000Z,96648.31
2022-09-22T00:47:02.128Z,96650.50
2022-09-22T00:50:02.655Z,96655.00
2022-09-22T00:52:52.018Z,96655.50
2022-09-22T00:55:28.770Z,96655.78
2022-09-22T00:57:57.111Z,96645.63
2022-09-22T01:00:24.173Z,96650.63
2022-09-22T01:02:57.043Z,96658.44
2022-09-22T01:05:25.996Z,96646.69
2022-09-22T01:07:54.379Z,96651.66
2022-09-22T01:10:23.930Z,96647.69
2022-09-22T01:13:12.723Z,96651.72
2022-09-22T01:16:04.559Z,96648.81
2022-09-22T01:19:12.358Z,96639.53
2022-09-22T01:22:10.550Z,96645.03
2022-09-22T01:24:37.631Z,96643.34
2022-09-22T01:27:22.498Z,96647.09
2022-09-22T01:30:06.517Z,96653.25
2022-09-22T01:32:48.539Z,96639.75
2022-09-22T01:36:08.959Z,96639.59
2022-09-22T01:38:55.655Z,96637.25
2022-09-22T01:41:48.129Z,96636.00
2022-09-22T01:44:31.884Z,96635.75
2022-09-22T01:47:07.334Z,96644.72
2022-09-22T01:49:39.865Z,96634.44
2022-09-22T01:52:13.115Z,96629.63
2022-09-22T01:54:47.247Z,96641.47
2022-09-22T01:57:20.472Z,96634.44
2022-09-22T01:59:54.890Z,96630.53
2022-09-22T02:02:29.288Z,96626.97
2022-09-22T02:05:01.043Z,96621.22
2022-09-22T02:07:33.913Z,96619.50
2022-09-22T02:10:05.570Z,96620.63
2022-09-22T02:12:32.661Z,96609.31
2022-09-22T02:14:59.735Z,96611.59
2022-09-22T02:17:29.672Z,96606.16
2022-09-22T02:20:00.322Z,96606.09
2022-09-22T02:22:27.350Z,96603.91
2022-09-22T02:24:54.432Z,96600.72
2022-09-22T02:27:26.917Z,96609.06
2022-09-22T02:30:01.430Z,96606.09
2022-09-22T02:32:30.664Z,96602.59
2022-09-22T02:34:57.867Z,96608.59
2022-09-22T02:37:39.783Z,96603.91
2022-09-22T02:40:43.756Z,96601.16
2022-09-22T02:43:24.094Z,96607.25
2022-09-22T02:45:57.842Z,96604.19
2022-09-22T02:48:30.906Z,96596.53
2022-09-22T02:50:58.126Z,96595.69
2022-09-22T02:53:25.167Z,96595.22
2022-09-22T02:55:52.271Z,96588.59
2022-09-22T02:58:19.315Z,96590.66
2022-09-22T03:00:46.367Z,96582.63
2022-09-22T03:03:13.413Z,96582.97
2022-09-22T03:05:40.756Z,96586.66
2022-09-22T03:08:07.817Z,96575.84
2022-09-22T03:10:34.903Z,96585.38
2022-09-22T03:13:15.920Z,96577.97
2022-09-22T03:15:47.335Z,96578.00
2022-09-22T03:18:14.689Z,96574.50
2022-09-22T03:20:41.818Z,96577.97
2022-09-22T03:23:09.184Z,96568.41
2022-09-22T03:25:36.494Z,96572.91
2022-09-22T03:28:03.632Z,96561.69
2022-09-22T03:30:31.057Z,96567.47
2022-09-22T03:32:58.187Z,96567.16
2022-09-22T03:35:25.230Z,96562.41
2022-09-22T03:37:52.263Z,96563.75
2022-09-22T03:40:19.393Z,96562.72
2022-09-22T03:42:46.855Z,96556.59
2022-09-22T03:45:14.967Z,96556.00
2022-09-22T03:47:42.120Z,96552.03
2022-09-22T03:50:10.219Z,96560.59
2022-09-22T03:52:37.451Z,96567.41
2022-09-22T03:55:04.894Z,96562.50
2022-09-22T03:57:31.961Z,96553.66
2022-09-22T03:59:59.180Z,96554.63
2022-09-22T04:02:26.375Z,96555.81
2022-09-22T04:04:53.584Z,96550.88
2022-09-22T04:07:20.745Z,96549.00
2022-09-22T04:09:47.789Z,96547.41
2022-09-22T04:12:14.922Z,96550.03
2022-09-22T04:14:41.988Z,96557.22
2022-09-22T04:17:09.137Z,96551.31
2022-09-22T04:19:36.176Z,96540.09
2022-09-22T04:22:03.809Z,96542.03
2022-09-22T04:24:31.014Z,96549.75
2022-09-22T04:29:45.120Z,96547.59
2022-09-22T04:32:12.268Z,96554.63
2022-09-22T04:34:39.547Z,96541.84
2022-09-22T04:37:06.644Z,96541.59
2022-09-22T04:39:33.810Z,96550.19
2022-09-22T04:42:00.874Z,96549.31
2022-09-22T04:44:27.938Z,96554.94
2022-09-22T04:46:57.044Z,96547.72
2022-09-22T04:49:24.210Z,96551.31
2022-09-22T04:51:51.251Z,96553.00
2022-09-22T04:54:18.408Z,96546.72
2022-09-22T04:56:45.485Z,96554.16
2022-09-22T04:59:12.692Z,96547.56
2022-09-22T05:01:39.872Z,96549.47
2022-09-22T05:04:07.032Z,96557.75
2022-09-22T05:06:34.514Z,96552.34
2022-09-22T05:09:03.116Z,96558.94
2022-09-22T05:11:31.243Z,96556.94
2022-09-22T05:13:58.609Z,96557.22
2022-09-22T05:16:26.483Z,96552.97
2022-09-22T05:18:53.685Z,96553.50
2022-09-22T05:21:21.121Z,96540.69
2022-09-22T05:23:48.217Z,96559.00
2022-09-22T05:26:15.273Z,96556.28
2022-09-22T05:28:42.796Z,96555.94
2022-09-22T05:31:09.921Z,96561.56
2022-09-22T05:33:37.115Z,96550.91
2022-09-22T05:36:04.200Z,96553.47
2022-09-22T05:38:31.274Z,96556.94
2022-09-22T05:40:58.413Z,96553.13
2022-09-22T05:43:25.598Z,96564.81
2022-09-22T05:45:52.673Z,96550.91
2022-09-22T05:48:19.782Z,96554.03
2022-09-22T05:50:46.893Z,96557.13
2022-09-22T05:53:14.523Z,96566.34
2022-09-22T05:55:41.754Z,96567.59
2022-09-22T05:58:12.405Z,96559.34
2022-09-22T06:00:40.696Z,96567.13
2022-09-22T06:03:07.961Z,96564.38
2022-09-22T06:05:38.167Z,96566.91
2022-09-22T06:08:06.937Z,96567.75
2022-09-22T06:10:36.451Z,96567.03
2022-09-22T06:13:04.360Z,96566.38
2022-09-22T06:15:33.905Z,96572.50
2022-09-22T06:18:02.119Z,96572.38
2022-09-22T06:20:29.331Z,96573.03
2022-09-22T06:22:56.727Z,96568.63
2022-09-22T06:25:23.880Z,96581.00
2022-09-22T06:28:05.620Z,96579.88
2022-09-22T06:30:34.514Z,96573.53
2022-09-22T06:33:02.903Z,96570.03
2022-09-22T06:35:39.630Z,96572.03
2022-09-22T06:38:08.183Z,96576.03
2022-09-22T06:40:38.239Z,96571.53
2022-09-22T06:43:11.767Z,96569.97
2022-09-22T06:45:39.789Z,96569.84
2022-09-22T06:48:10.147Z,96568.63
2022-09-22T06:50:38.183Z,96556.97
2022-09-22T06:53:07.296Z,96570.84
2022-09-22T06:55:35.843Z,96562.84
2022-09-22T06:58:03.316Z,96566.72
2022-09-22T07:00:33.043Z,96555.97
2022-09-22T07:03:03.114Z,96562.94
2022-09-22T07:05:30.200Z,96561.28
2022-09-22T07:07:57.244Z,96558.31
2022-09-22T07:10:24.340Z,96562.00
2022-09-22T07:12:51.438Z,96561.63
2022-09-22T07:15:18.514Z,96562.00
2022-09-22T07:17:45.810Z,96556.84
2022-09-22T07:20:12.875Z,96550.81
2022-09-22T07:22:40.555Z,96564.75
2022-09-22T07:25:08.666Z,96562.63
2022-09-22T07:27:35.726Z,96557.47
2022-09-22T07:30:03.466Z,96563.91
2022-09-22T07:32:35.090Z,96571.19
2022-09-22T07:35:03.663Z,96573.84
2022-09-22T07:37:33.040Z,96568.00
2022-09-22T07:40:02.699Z,96571.97
2022-09-22T07:42:29.820Z,96574.09
2022-09-22T07:45:15.360Z,96567.91
2022-09-22T07:48:04.260Z,96563.25
2022-09-22T07:50:31.452Z,96566.72
2022-09-22T07:52:58.530Z,96573.03
2022-09-22T07:55:25.650Z,96563.63
2022-09-22T07:58:01.906Z,96562.97
2022-09-22T08:00:33.593Z,96565.41
2022-09-22T08:03:01.174Z,96560.28
2022-09-22T08:05:29.197Z,96567.16
2022-09-22T08:07:58.187Z,96563.44
2022-09-22T08:10:26.219Z,96563.59
2022-09-22T08:12:57.969Z,96559.94
2022-09-22T08:15:27.307Z,96565.28
2022-09-22T08:17:58.359Z,96567.75
2022-09-22T08:20:28.860Z,96570.88
2022-09-22T08:23:02.846Z,96567.81
2022-09-22T08:25:30.370Z,96564.84
2022-09-22T08:27:57.508Z,96570.38
2022-09-22T08:30:24.650Z,96571.81
2022-09-22T08:32:52.064Z,96568.38
2022-09-22T08:35:19.615Z,96569.28
2022-09-22T08:37:50.264Z,96564.22
2022-09-22T08:40:23.792Z,96558.41
2022-09-22T08:42:54.302Z,96557.59
2022-09-22T08:45:32.541Z,96567.38
2022-09-22T08:48:25.823Z,96560.09
2022-09-22T08:51:16.727Z,96563.28
2022-09-22T08:53:48.660Z,96561.75
2022-09-22T08:56:29.185Z,96561.41
2022-09-22T08:59:09.032Z,96560.56
2022-09-22T09:02:01.121Z,96554.75
2022-09-22T09:04:58.998Z,96555.53
2022-09-22T09:07:29.214Z,96559.88
2022-09-22T09:10:18.712Z,96546.91
2022-09-22T09:13:03.974Z,96563.00
2022-09-22T09:16:04.218Z,96551.25
2022-09-22T09:18:33.944Z,96552.44
2022-09-22T09:21:09.581Z,96560.34
2022-09-22T09:26:36.807Z,96550.06
2022-09-22T09:29:07.453Z,96554.03
2022-09-22T09:31:41.926Z,96552.47
2022-09-22T09:34:16.517Z,96556.44
2022-09-22T09:36:49.173Z,96547.75
2022-09-22T09:39:32.063Z,96551.28
2022-09-22T09:42:02.042Z,96554.06
2022-09-22T09:44:39.994Z,96549.34
2022-09-22T09:47:27.278Z,96554.88
2022-09-22T09:49:54.734Z,96554.06
2022-09-22T09:52:26.048Z,96558.81
2022-09-22T09:54:54.311Z,96554.88
2022-09-22T09:57:27.597Z,96559.97
2022-09-22T10:00:33.534Z,96552.47
2022-09-22T10:03:03.271Z,96555.22
2022-09-22T10:05:32.355Z,96552.50
2022-09-22T10:08:13.077Z,96546.97
2022-09-22T10:10:41.171Z,96546.56
2022-09-22T10:13:08.260Z,96548.16
2022-09-22T10:15:40.494Z,96543.00
2022-09-22T10:18:29.425Z,96546.16
2022-09-22T10:21:10.050Z,96549.25
2022-09-22T10:23:37.157Z,96542.19
2022-09-22T10:26:19.405Z,96539.00
2022-09-22T10:29:18.701Z,96537.75
2022-09-22T10:32:02.834Z,96531.06
2022-09-22T10:34:32.095Z,96533.34
2022-09-22T10:37:00.940Z,96525.53
2022-09-22T10:39:51.846Z,96523.81
2022-09-22T10:42:27.835Z,96531.78
2022-09-22T10:45:00.683Z,96529.47
2022-09-22T10:48:07.379Z,96515.97
2022-09-22T10:50:45.819Z,96524.66
2022-09-22T10:54:20.679Z,96511.16
2022-09-22T10:56:53.274Z,96516.69
2022-09-22T10:59:38.922Z,96514.25
2022-09-22T11:02:40.046Z,96518.97
2022-09-22T11:05:19.277Z,96512.22
2022-09-22T11:08:23.595Z,96505.59
2022-09-22T11:11:39.875Z,96507.06
2022-09-22T11:14:19.052Z,96505.22
2022-09-22T11:16:46.086Z,96508.72
2022-09-22T11:19:37.650Z,96504.53
2022-09-22T11:22:36.956Z,96513.53
2022-09-22T11:25:06.732Z,96499.38
2022-09-22T11:28:04.078Z,96499.53
2022-09-22T11:30:40.397Z,96491.13
2022-09-22T11:33:36.981Z,96494.59
2022-09-22T11:36:32.965Z,96488.03
2022-09-22T11:39:33.970Z,96485.41
2022-09-22T11:42:26.149Z,96486.78
2022-09-22T11:45:21.844Z,96478.78
2022-09-22T11:48:05.984Z,96486.63
2022-09-22T11:50:39.528Z,96484.16
2022-09-22T11:53:26.825Z,96482.31
2022-09-22T11:56:14.643Z,96481.41
2022-09-22T11:58:44.599Z,96467.63
2022-09-22T12:01:17.450Z,96472.44
2022-09-22T12:03:53.322Z,96470.34
2022-09-22T12:06:26.172Z,96466.88
2022-09-22T12:09:07.092Z,96464.13
2022-09-22T12:11:37.638Z,96458.44
2022-09-22T12:14:06.371Z,96464.47
2022-09-22T12:16:58.706Z,96460.72
2022-09-22T12:19:56.900Z,96464.75
2022-09-22T12:22:31.223Z,96458.78
2022-09-22T12:24:58.445Z,96460.63
2022-09-22T12:27:27.724Z,96450.31
2022-09-22T12:30:09.986Z,96450.66
2022-09-22T12:32:42.914Z,96442.22
2022-09-22T12:35:39.243Z,96443.41
2022-09-22T12:38:06.331Z,96441.50
2022-09-22T12:40:37.196Z,96434.38
2022-09-22T12:43:05.887Z,96432.09
2022-09-22T12:45:37.998Z,96436.41
2022-09-22T12:48:17.418Z,96421.44
2022-09-22T12:50:45.536Z,96431.50
2022-09-22T12:53:21.686Z,96428.13
2022-09-22T12:55:50.608Z,96426.44
2022-09-22T12:58:20.406Z,96425.41
2022-09-22T13:00:52.206Z,96422.44
2022-09-22T13:03:47.831Z,96416.91
2022-09-22T13:06:23.688Z,96426.03
2022-09-22T13:08:53.678Z,96421.88
2022-09-22T13:11:59.049Z,96412.91
2022-09-22T13:15:17.373Z,96417.84
2022-09-22T13:17:47.667Z,96402.56
2022-09-22T13:20:22.673Z,96402.22
2022-09-22T13:22:51.893Z,96401.22
2022-09-22T13:25:23.346Z,96398.84
2022-09-22T13:28:09.456Z,96393.03
2022-09-22T13:30:38.183Z,96400.25
2022-09-22T13:33:05.616Z,96390.13
2022-09-22T13:35:37.522Z,96395.94
2022-09-22T13:38:05.169Z,96396.16
2022-09-22T13:40:34.664Z,96387.34
2022-09-22T13:43:08.631Z,96378.41
2022-09-22T13:45:39.620Z,96384.34
2022-09-22T13:48:11.136Z,96380.34
2022-09-22T13:50:46.089Z,96378.84
2022-09-22T13:53:18.797Z,96377.06
2022-09-22T13:55:51.229Z,96374.53
2022-09-22T13:58:34.423Z,96376.91
2022-09-22T14:01:17.225Z,96370.91
2022-09-22T14:03:45.023Z,96366.13
2022-09-22T14:06:15.807Z,96368.84
2022-09-22T14:08:44.624Z,96371.59
2022-09-22T14:11:16.354Z,96368.09
2022-09-22T14:13:55.734Z,96370.28
2022-09-22T14:16:26.648Z,96364.94
2022-09-22T14:19:05.864Z,96358.84
2022-09-22T14:21:40.203Z,96360.56
2022-09-22T14:24:07.305Z,96360.72
2022-09-22T14:26:37.491Z,96357.09
2022-09-22T14:29:27.633Z,96355.34
2022-09-22T14:32:19.513Z,96360.25
2022-09-22T14:34:52.888Z,96346.19
2022-09-22T14:37:31.652Z,96357.47
2022-09-22T14:40:02.501Z,96350.91
2022-09-22T14:42:31.943Z,96345.91
2022-09-22T14:45:07.690Z,96343.19
2022-09-22T14:47:40.297Z,96339.88
2022-09-22T14:50:18.685Z,96334.91
2022-09-22T14:52:53.242Z,96336.59
2022-09-22T14:55:42.721Z,96336.44
2022-09-22T14:58:27.901Z,96336.13
2022-09-22T15:01:15.185Z,96330.25
2022-09-22T15:03:46.505Z,96331.38
2022-09-22T15:06:14.684Z,96333.16
2022-09-22T15:08:47.733Z,96326.63
2022-09-22T15:11:16.426Z,96324.94
2022-09-22T15:13:45.423Z,96325.22
2022-09-22T15:16:35.842Z,96327.81
2022-09-22T15:19:04.168Z,96325.94
2022-09-22T15:21:45.969Z,96319.75
2022-09-22T15:24:15.610Z,96315.81
2022-09-22T15:26:44.165Z,96317.44
2022-09-22T15:29:12.549Z,96316.66
2022-09-22T15:31:40.111Z,96310.88
2022-09-22T15:34:09.888Z,96307.03
2022-09-22T15:36:45.855Z,96303.41
2022-09-22T15:39:21.480Z,96312.84
2022-09-22T15:41:49.533Z,96305.53
2022-09-22T15:44:16.833Z,96311.47
2022-09-22T15:46:45.535Z,96295.97
2022-09-22T15:49:23.163Z,96286.00
2022-09-22T15:51:50.646Z,96305.19
2022-09-22T15:54:20.431Z,96303.06
2022-09-22T15:56:50.297Z,96290.78
2022-09-22T15:59:22.889Z,96294.06
2022-09-22T16:01:51.854Z,96294.47
2022-09-22T16:04:19.999Z,96290.97
2022-09-22T16:06:54.647Z,96295.13
2022-09-22T16:09:21.785Z,96287.31
2022-09-22T16:11:49.159Z,96288.75
2022-09-22T16:14:16.606Z,96283.03
2022-09-22T16:16:43.721Z,96289.28
2022-09-22T16:19:10.857Z,96289.84
2022-09-22T16:21:41.438Z,96291.81
2022-09-22T16:24:11.990Z,96286.75
2022-09-22T16:26:40.114Z,96283.34
2022-09-22T16:29:08.250Z,96283.06
2022-09-22T16:31:37.071Z,96284.75
2022-09-22T16:34:05.734Z,96287.97
2022-09-22T16:36:34.203Z,96281.03
2022-09-22T16:39:01.928Z,96269.84
2022-09-22T16:41:32.104Z,96274.13
2022-09-22T16:44:01.038Z,96274.56
2022-09-22T16:46:33.614Z,96280.69
2022-09-22T16:49:09.801Z,96281.34
2022-09-22T16:51:39.982Z,96278.75
2022-09-22T16:54:14.655Z,96281.97
2022-09-22T16:59:10.597Z,96275.88
2022-09-22T17:01:38.032Z,96276.53
2022-09-22T17:04:06.726Z,96274.34
2022-09-22T17:06:35.988Z,96286.97
2022-09-22T17:09:03.607Z,96278.78
2022-09-22T17:11:36.433Z,96280.78
2022-09-22T17:14:12.432Z,96282.00
2022-09-22T17:16:44.942Z,96285.16
2022-09-22T17:19:18.311Z,96294.75
2022-09-22T17:21:51.035Z,96286.00
2022-09-22T17:24:19.811Z,96285.13
2022-09-22T17:26:49.229Z,96293.16
2022-09-22T17:29:17.374Z,96293.53
2022-09-22T17:31:48.962Z,96294.44
2022-09-22T17:34:17.128Z,96296.41
2022-09-22T17:36:44.590Z,96296.22
2022-09-22T17:39:11.802Z,96291.53
2022-09-22T17:41:46.716Z,96292.66
2022-09-22T17:44:16.935Z,96297.81
2022-09-22T17:47:02.249Z,96293.53
2022-09-22T17:49:47.617Z,96284.28
2022-09-22T17:52:28.232Z,96290.59
2022-09-22T17:55:06.913Z,96285.78
2022-09-22T17:57:38.655Z,96299.69
2022-09-22T18:00:09.057Z,96300.03
2022-09-22T18:02:39.048Z,96291.63
2022-09-22T18:05:08.724Z,96299.41
2022-09-22T18:07:36.666Z,96297.13
2022-09-22T18:10:05.191Z,96297.34
2022-09-22T18:12:34.108Z,96301.66
2022-09-22T18:15:03.452Z,96301.66
2022-09-22T18:17:31.896Z,96292.34
2022-09-22T18:20:00.058Z,96297.13
2022-09-22T18:22:29.369Z,96301.81
2022-09-22T18:24:56.317Z,96299.28
2022-09-22T18:27:27.076Z,96292.56
2022-09-22T18:29:58.272Z,96296.44
2022-09-22T18:32:29.804Z,96296.56
2022-09-22T18:34:56.959Z,96300.38
2022-09-22T18:37:25.037Z,96289.81
2022-09-22T18:39:52.287Z,96299.38
2022-09-22T18:42:22.484Z,96300.56
2022-09-22T18:44:50.925Z,96309.97
2022-09-22T18:47:19.433Z,96306.13
2022-09-22T18:49:48.771Z,96309.94
2022-09-22T18:52:22.888Z,96310.13
2022-09-22T18:54:53.305Z,96304.88
2022-09-22T18:57:22.244Z,96303.19
2022-09-22T18:59:52.330Z,96325.50
2022-09-22T19:02:23.032Z,96324.34
2022-09-22T19:04:53.653Z,96320.91
2022-09-22T19:07:42.428Z,96312.88
2022-09-22T19:10:23.324Z,96321.66
2022-09-22T19:12:53.849Z,96324.75
2022-09-22T19:15:21.107Z,96311.47
2022-09-22T19:17:50.915Z,96318.06
2022-09-22T19:20:23.314Z,96323.28
2022-09-22T19:22:52.249Z,96324.06
2022-09-22T19:25:21.639Z,96317.81
2022-09-22T19:27:50.303Z,96318.13
2022-09-22T19:30:21.886Z,96318.38
2022-09-22T19:32:50.539Z,96316.56
2022-09-22T19:35:17.723Z,96305.38
2022-09-22T19:37:44.963Z,96310.09
2022-09-22T19:40:18.573Z,96306.66
2022-09-22T19:42:47.122Z,96312.91
2022-09-22T19:45:14.537Z,96304.56
2022-09-22T19:47:41.703Z,96309.47
2022-09-22T19:50:09.008Z,96301.69
2022-09-22T19:52:37.651Z,96303.69
2022-09-22T19:55:06.870Z,96306.25
2022-09-22T19:57:36.213Z,96303.50
2022-09-22T20:00:04.294Z,96290.75
2022-09-22T20:02:38.763Z,96298.13
2022-09-22T20:05:17.358Z,96294.97
2022-09-22T20:07:44.490Z,96293.63
2022-09-22T20:10:13.172Z,96294.81
2022-09-22T20:12:40.815Z,96286.78
2022-09-22T20:15:08.152Z,96285.13
2022-09-22T20:17:35.309Z,96285.59
2022-09-22T20:20:06.135Z,96280.16
2022-09-22T20:22:34.064Z,96281.59
2022-09-22T20:25:01.342Z,96283.22
2022-09-22T20:27:31.244Z,96277.28
2022-09-22T20:29:58.908Z,96277.13
2022-09-22T20:32:28.379Z,96272.22
2022-09-22T20:34:55.861Z,96278.06
2022-09-22T20:37:24.378Z,96275.91
2022-09-22T20:39:52.004Z,96269.25
2022-09-22T20:42:19.132Z,96270.00
2022-09-22T20:44:46.823Z,96264.78
2022-09-22T20:47:18.899Z,96267.06
2022-09-22T20:49:50.845Z,96269.38
2022-09-22T20:52:20.490Z,96261.91
2022-09-22T20:54:48.381Z,96261.91
2022-09-22T20:57:16.017Z,96259.59
2022-09-22T20:59:46.159Z,96254.66
2022-09-22T21:02:14.901Z,96251.50
2022-09-22T21:04:42.376Z,96251.34
2022-09-22T21:07:11.275Z,96243.84
2022-09-22T21:09:57.007Z,96248.63
2022-09-22T21:12:30.701Z,96245.53
2022-09-22T21:14:59.060Z,96238.00
2022-09-22T21:17:27.736Z,96238.81
2022-09-22T21:19:57.062Z,96234.09
2022-09-22T21:22:25.223Z,96241.25
2022-09-22T21:24:52.524Z,96241.28
2022-09-22T21:27:19.935Z,96239.66
2022-09-22T21:29:47.053Z,96234.19
2022-09-22T21:32:14.103Z,96231.38
2022-09-22T21:34:42.812Z,96230.97
2022-09-22T21:37:09.940Z,96225.44
2022-09-22T21:39:37.015Z,96223.94
2022-09-22T21:42:04.099Z,96227.88
2022-09-22T21:44:31.218Z,96227.09
2022-09-22T21:46:58.443Z,96223.56
2022-09-22T21:49:25.622Z,96221.97
2022-09-22T21:51:52.756Z,96222.38
2022-09-22T21:54:19.847Z,96212.94
2022-09-22T21:56:46.989Z,96215.28
2022-09-22T21:59:14.207Z,96216.09
2022-09-22T22:01:42.127Z,96216.06
2022-09-22T22:04:10.194Z,96216.84
2022-09-22T22:06:40.635Z,96221.59
2022-09-22T22:09:14.627Z,96212.13
2022-09-22T22:11:45.598Z,96212.13
2022-09-22T22:14:13.034Z,96215.31
2022-09-22T22:16:42.665Z,96214.53
2022-09-22T22:19:17.081Z,96209.00
2022-09-22T22:21:44.443Z,96210.13
2022-09-22T22:24:33.446Z,96208.91
2022-09-22T22:27:06.237Z,96204.28
2022-09-22T22:29:38.611Z,96204.28
2022-09-22T22:32:08.015Z,96203.50
2022-09-22T22:34:35.333Z,96198.00
2022-09-22T22:37:04.540Z,96192.47
2022-09-22T22:39:32.464Z,96195.63
2022-09-22T22:41:59.552Z,96201.09
2022-09-22T22:44:26.603Z,96202.66
2022-09-22T22:46:53.712Z,96195.88
2022-09-22T22:49:20.985Z,96204.25
2022-09-22T22:51:49.325Z,96194.41
2022-09-22T22:54:16.439Z,96201.88
2022-09-22T22:56:46.710Z,96200.31
2022-09-22T22:59:16.137Z,96190.88
2022-09-22T23:01:44.231Z,96174.38
2022-09-22T23:04:12.135Z,96196.38
2022-09-22T23:06:44.352Z,96191.44
2022-09-22T23:09:14.811Z,96185.34
2022-09-22T23:11:43.438Z,96181.44
2022-09-22T23:14:12.015Z,96182.22
2022-09-22T23:16:43.215Z,96183.38
2022-09-22T23:19:13.869Z,96176.66
2022-09-22T23:21:41.501Z,96171.81
2022-09-22T23:24:09.277Z,96167.22
2022-09-22T23:26:37.390Z,96168.06
2022-09-22T23:29:04.939Z,96166.47
2022-09-22T23:31:32.489Z,96168.06
2022-09-22T23:33:59.811Z,96163.34
2022-09-22T23:36:28.734Z,96163.38
2022-09-22T23:39:04.355Z,96160.22
2022-09-22T23:41:36.406Z,96153.91
2022-09-22T23:44:06.483Z,96154.69
2022-09-22T23:46:34.430Z,96149.94
2022-09-22T23:49:02.190Z,96151.56
2022-09-22T23:51:29.554Z,96149.16
2022-09-22T23:53:57.165Z,96149.19
2022-09-22T23:56:24.756Z,96147.59
2022-09-22T23:58:52.296Z,96146.06
